This is the latest recevied weather packets stored in our database for station/object W4SMH. If no packets are shown the sender has not sent any weather packets the latest 10 day(s).
| Time | Temp. | Humidity | Pressure | Rain* | Wind** | Luminosity | Snow |
|---|---|---|---|---|---|---|---|
| 1777707853 | -0.56° C | 86% | 1017.3 hPa | 0 mm | - | 0 W/m² | - |
| 1777707718 | -0.56° C | 86% | 1017.3 hPa | 0 mm | - | 0 W/m² | - |
| 1777707658 | -0.56° C | 86% | 1017.3 hPa | 0 mm | - | 0 W/m² | - |
| 1777706940 | -0.56° C | 86% | 1017.3 hPa | 0 mm | - | 0 W/m² | - |
| 1777706624 | -0.56° C | 85% | 1017.5 hPa | 0 mm | - | 0 W/m² | - |
| 1777705375 | -0.56° C | 85% | 1017.6 hPa | 0 mm | - | 0 W/m² | - |
| 1777705027 | -0.56° C | 85% | 1017.5 hPa | 0 mm | - | 0 W/m² | - |
| 1777704709 | -0.56° C | 84% | 1017.6 hPa | 0 mm | - | 0 W/m² | - |
| 1777704099 | 0° C | 84% | 1017.6 hPa | 0 mm | - | 0 W/m² | - |
| 1777704035 | 0° C | 84% | 1017.6 hPa | 0 mm | - | 0 W/m² | - |
| 1777703852 | 0° C | 84% | 1017.6 hPa | 0 mm | - | 0 W/m² | - |
| 1777702837 | 0° C | 84% | 1017.6 hPa | 0 mm | - | 0 W/m² | - |
| 1777702257 | 5° C | 93% | 1015 hPa | 0.25 mm | - | 346 W/m² | - |
| 1777702196 | 0° C | 84% | 1017.7 hPa | 0 mm | - | 0 W/m² | - |
| 1777701955 | 4.44° C | 93% | 1015.1 hPa | 0.25 mm | - | 315 W/m² | - |
| 1777701890 | 0.56° C | 84% | 1017.7 hPa | 0 mm | - | 0 W/m² | - |
| 1777701569 | 0.56° C | 84% | 1017.7 hPa | 0 mm | - | 0 W/m² | - |
| 1777701200 | 0.56° C | 84% | 1017.8 hPa | 0 mm | - | 0 W/m² | - |
| 1777701141 | 0.56° C | 84% | 1017.9 hPa | 0 mm | - | 0 W/m² | - |
| 1777701081 | 0.56° C | 84% | 1017.8 hPa | 0 mm | - | 0 W/m² | - |
| 1777699273 | 0.56° C | 83% | 1017.8 hPa | 0 mm | - | 0 W/m² | - |
| 1777699249 | 0.56° C | 83% | 1017.7 hPa | 0 mm | - | 0 W/m² | - |
| 1777698553 | 0.56° C | 83% | 1017.8 hPa | 0 mm | - | 0 W/m² | - |
| 1777698341 | 0.56° C | 83% | 1017.7 hPa | 0 mm | - | 0 W/m² | - |
| 1777698046 | 0.56° C | 83% | 1017.8 hPa | 0 mm | - | 0 W/m² | - |
* Rain latest hour (hover to see other rain measurements)
** Current wind speed in m/s (hover to see current wind gust speed)